Time;durP1;ratioP1;P1;durP2;ratioP2;P2;SDS_P1;SDS_P2;PMS_P1;PMS_P2;Temp;Humidity;BMP_temperature;BMP_pressure;BME280_temperature;BME280_humidity;BME280_pressure;Samples;Min_cycle;Max_cycle;Signal;HPM_P1;HPM_P2
2022/04/05 00:00:28;;;;;;;12.32;2.40;;;7.20;99.90;;;;;;5111057;28;20118;-63
2022/04/05 00:02:55;;;;;;;11.27;2.97;;;7.20;99.90;;;;;;5094410;28;20131;-62
2022/04/05 00:05:21;;;;;;;13.82;3.08;;;7.20;99.90;;;;;;5097145;28;20093;-61
2022/04/05 00:07:47;;;;;;;10.73;3.00;;;7.30;99.90;;;;;;5115672;28;20050;-63
2022/04/05 00:10:14;;;;;;;10.65;3.15;;;7.20;99.90;;;;;;5079138;28;20130;-63
2022/04/05 00:12:40;;;;;;;12.63;2.45;;;7.20;99.90;;;;;;5097068;28;20473;-66
2022/04/05 00:15:09;;;;;;;16.33;2.97;;;7.20;99.90;;;;;;5115195;28;20058;-69
2022/04/05 00:17:36;;;;;;;11.20;2.38;;;7.20;99.90;;;;;;5115417;28;20362;-63
2022/04/05 00:20:02;;;;;;;12.75;2.55;;;7.10;99.90;;;;;;5096725;28;20053;-62
2022/04/05 00:22:28;;;;;;;16.83;3.25;;;7.20;99.90;;;;;;5114599;28;20044;-62
2022/04/05 00:24:54;;;;;;;13.02;2.78;;;7.20;99.90;;;;;;5080670;28;20076;-64
2022/04/05 00:27:20;;;;;;;11.68;3.13;;;7.10;99.90;;;;;;5114841;28;20050;-63
2022/04/05 00:29:45;;;;;;;19.00;3.25;;;7.20;99.90;;;;;;5115057;28;20044;-62
2022/04/05 00:32:12;;;;;;;13.40;3.45;;;7.20;99.90;;;;;;5096771;28;20054;-62
2022/04/05 00:34:38;;;;;;;14.40;2.47;;;7.20;99.90;;;;;;5115082;28;20058;-63
2022/04/05 00:37:04;;;;;;;15.48;3.45;;;7.10;99.90;;;;;;5097139;28;20459;-63
2022/04/05 00:39:30;;;;;;;13.88;2.88;;;7.30;99.90;;;;;;5114309;28;20047;-63
2022/04/05 00:41:56;;;;;;;13.57;2.60;;;7.10;99.90;;;;;;5114992;28;20051;-63
2022/04/05 00:44:22;;;;;;;14.50;3.75;;;7.10;99.90;;;;;;5114344;28;20040;-62
2022/04/05 00:46:51;;;;;;;21.67;4.13;;;7.10;99.90;;;;;;5114891;28;20039;-63
2022/04/05 00:49:39;;;;;;;17.98;3.10;;;7.10;99.90;;;;;;5096128;28;20451;-62
2022/04/05 00:52:05;;;;;;;22.42;3.83;;;7.10;99.90;;;;;;5113473;28;20048;-63
2022/04/05 00:54:33;;;;;;;13.93;2.90;;;7.10;99.90;;;;;;5096254;28;20075;-63
2022/04/05 00:56:59;;;;;;;17.90;3.00;;;7.10;99.90;;;;;;5114790;28;20050;-62
2022/04/05 00:59:30;;;;;;;18.63;3.08;;;7.10;99.90;;;;;;5114033;28;20051;-65
2022/04/05 01:01:57;;;;;;;20.73;3.42;;;7.10;99.90;;;;;;5114524;28;20101;-65
2022/04/05 01:04:22;;;;;;;14.93;2.75;;;7.10;99.90;;;;;;5114138;28;20096;-62
2022/04/05 01:06:49;;;;;;;13.43;2.83;;;7.10;99.90;;;;;;5114620;28;20130;-63
2022/04/05 01:09:15;;;;;;;11.95;2.88;;;7.00;99.90;;;;;;5095836;28;20051;-66
2022/04/05 01:11:41;;;;;;;12.18;2.95;;;7.00;99.90;;;;;;5114213;28;20450;-63
2022/04/05 01:14:07;;;;;;;10.85;2.45;;;7.00;99.90;;;;;;5113792;28;20081;-63
2022/04/05 01:16:33;;;;;;;7.20;1.77;;;6.90;99.90;;;;;;5113832;28;20273;-63
2022/04/05 01:18:59;;;;;;;10.27;2.00;;;6.90;99.90;;;;;;5114316;28;20066;-62
2022/04/05 01:21:25;;;;;;;11.82;2.35;;;6.90;99.90;;;;;;5113727;28;20043;-63
2022/04/05 01:24:23;;;;;;;12.27;2.45;;;6.80;99.90;;;;;;5095829;28;20055;-65
2022/04/05 01:26:51;;;;;;;14.63;2.47;;;6.70;99.90;;;;;;5057914;28;20392;-62
2022/04/05 01:29:18;;;;;;;12.57;3.00;;;6.70;99.90;;;;;;5113746;28;20047;-69
2022/04/05 01:31:47;;;;;;;11.30;2.40;;;7.00;99.90;;;;;;5113898;28;20051;-62
2022/04/05 01:34:21;;;;;;;10.02;2.25;;;6.70;99.90;;;;;;5078895;28;20122;-63
2022/04/05 01:36:52;;;;;;;12.52;2.13;;;6.70;99.90;;;;;;5096072;28;20061;-63
2022/04/05 01:39:20;;;;;;;12.35;2.33;;;6.70;99.90;;;;;;5113414;28;20138;-69
2022/04/05 01:41:50;;;;;;;11.75;2.70;;;6.60;99.90;;;;;;5095589;28;20054;-64
2022/04/05 01:44:16;;;;;;;14.32;2.47;;;6.70;99.90;;;;;;5113831;28;20074;-68
2022/04/05 01:46:42;;;;;;;13.35;2.05;;;6.80;99.90;;;;;;5113483;28;20044;-64
2022/04/05 01:49:10;;;;;;;19.50;2.95;;;6.60;99.90;;;;;;5095558;28;20054;-63
2022/04/05 01:51:37;;;;;;;22.08;2.90;;;6.60;99.90;;;;;;5113192;28;20082;-64
2022/04/05 01:54:07;;;;;;;18.88;3.72;;;6.60;99.90;;;;;;5112952;28;20557;-64
2022/04/05 01:56:48;;;;;;;9.68;2.58;;;6.60;99.90;;;;;;5112784;28;20130;-63
2022/04/05 01:59:17;;;;;;;14.27;2.70;;;6.60;99.90;;;;;;5113387;28;20054;-63
2022/04/05 02:01:43;;;;;;;13.77;2.67;;;6.60;99.90;;;;;;5112557;28;20110;-64
2022/04/05 02:04:10;;;;;;;11.77;2.83;;;6.50;99.90;;;;;;5113422;28;20047;-63
2022/04/05 02:06:37;;;;;;;10.82;2.10;;;6.60;99.90;;;;;;5112881;28;20043;-63
2022/04/05 02:09:02;;;;;;;17.10;3.08;;;6.60;99.90;;;;;;5113488;28;20076;-63
2022/04/05 02:11:28;;;;;;;16.70;2.85;;;6.50;99.90;;;;;;5112877;28;20130;-65
2022/04/05 02:13:54;;;;;;;17.33;2.80;;;6.50;99.90;;;;;;5113123;28;20412;-63
2022/04/05 02:16:19;;;;;;;14.25;2.53;;;6.50;99.90;;;;;;5078408;28;20062;-63
2022/04/05 02:18:45;;;;;;;16.10;3.13;;;6.50;99.90;;;;;;5112808;28;20054;-64
2022/04/05 02:21:11;;;;;;;19.25;2.65;;;6.50;99.90;;;;;;5113039;28;20043;-64
2022/04/05 02:23:37;;;;;;;12.25;2.55;;;6.50;99.90;;;;;;5093622;28;20123;-64
2022/04/05 02:26:03;;;;;;;8.82;2.10;;;6.50;99.90;;;;;;5111806;28;20056;-63
2022/04/05 02:28:28;;;;;;;19.17;3.05;;;6.60;99.90;;;;;;5094405;28;20048;-64
2022/04/05 02:30:54;;;;;;;18.00;3.00;;;6.50;99.90;;;;;;5094516;28;20126;-63
2022/04/05 02:33:20;;;;;;;17.35;2.78;;;6.50;99.90;;;;;;5112796;28;20097;-64
2022/04/05 02:35:46;;;;;;;18.52;2.80;;;6.50;99.90;;;;;;5112186;28;20043;-62
2022/04/05 02:38:12;;;;;;;15.55;3.15;;;6.50;99.90;;;;;;5112786;28;20074;-63
2022/04/05 02:40:37;;;;;;;13.93;3.00;;;6.50;99.90;;;;;;5077326;28;20051;-65
2022/04/05 02:43:03;;;;;;;13.90;2.83;;;6.50;99.90;;;;;;5094511;28;20039;-63
2022/04/05 02:45:30;;;;;;;19.90;2.95;;;6.50;99.90;;;;;;5111877;28;20072;-65
2022/04/05 02:47:56;;;;;;;19.58;2.78;;;6.50;99.90;;;;;;5112492;28;20066;-65
2022/04/05 02:50:22;;;;;;;18.45;3.13;;;6.50;99.90;;;;;;5112588;28;20096;-63
2022/04/05 02:52:49;;;;;;;18.42;3.35;;;6.50;99.90;;;;;;5112319;28;20036;-64
2022/04/05 02:55:16;;;;;;;14.40;3.03;;;6.50;99.90;;;;;;5112069;28;20054;-64
2022/04/05 02:57:43;;;;;;;14.32;2.80;;;6.50;99.90;;;;;;5093914;28;20389;-63
2022/04/05 03:00:11;;;;;;;15.90;3.20;;;6.50;99.90;;;;;;5112158;28;20056;-63
2022/04/05 03:02:37;;;;;;;16.33;2.88;;;6.50;99.90;;;;;;5111960;28;20441;-63
2022/04/05 03:05:07;;;;;;;17.45;3.90;;;6.60;99.90;;;;;;5093811;28;20062;-64
2022/04/05 03:07:34;;;;;;;19.42;3.38;;;6.50;99.90;;;;;;5111788;28;20040;-63
2022/04/05 03:10:04;;;;;;;16.20;3.80;;;6.50;99.90;;;;;;5112246;28;20083;-63
2022/04/05 03:12:30;;;;;;;21.15;3.05;;;6.50;99.90;;;;;;5076465;28;20497;-65
2022/04/05 03:14:56;;;;;;;21.80;3.97;;;6.50;99.90;;;;;;5112076;28;20043;-63
2022/04/05 03:17:22;;;;;;;15.52;3.03;;;6.50;99.90;;;;;;5112040;28;20071;-64
2022/04/05 03:19:48;;;;;;;17.83;3.22;;;6.40;99.90;;;;;;5111649;28;20633;-63
2022/04/05 03:22:16;;;;;;;18.50;3.22;;;6.50;99.90;;;;;;5112119;28;20151;-63
2022/04/05 03:24:43;;;;;;;21.88;4.18;;;6.50;99.90;;;;;;5111267;28;20063;-63
2022/04/05 03:27:09;;;;;;;23.70;3.00;;;6.40;99.90;;;;;;5093369;28;20066;-65
2022/04/05 03:29:34;;;;;;;12.95;2.63;;;6.40;99.90;;;;;;5111487;28;20047;-63
2022/04/05 03:32:01;;;;;;;15.45;2.50;;;6.40;99.90;;;;;;5111678;28;20405;-63
2022/04/05 03:34:28;;;;;;;17.60;2.58;;;6.40;99.90;;;;;;5093498;28;20051;-63
2022/04/05 03:36:54;;;;;;;14.43;3.17;;;6.40;99.90;;;;;;5092822;28;20535;-65
2022/04/05 03:39:20;;;;;;;19.05;3.17;;;6.40;99.90;;;;;;5111693;28;20118;-63
2022/04/05 03:41:46;;;;;;;15.25;2.88;;;6.30;99.90;;;;;;5111072;28;20670;-63
2022/04/05 03:44:12;;;;;;;17.75;2.55;;;6.30;99.90;;;;;;5111843;28;20143;-62
2022/04/05 03:46:37;;;;;;;18.25;3.63;;;6.30;99.90;;;;;;5111335;28;20039;-62
2022/04/05 03:49:03;;;;;;;15.95;2.47;;;6.30;99.90;;;;;;5111688;28;20052;-62
2022/04/05 03:51:29;;;;;;;16.50;2.65;;;6.30;99.90;;;;;;5111404;28;20088;-64
2022/04/05 03:53:56;;;;;;;13.98;2.60;;;6.30;99.90;;;;;;5110756;28;20039;-62
2022/04/05 03:56:22;;;;;;;13.68;2.85;;;6.30;99.90;;;;;;5093508;28;20112;-62
2022/04/05 03:58:48;;;;;;;14.23;2.72;;;6.30;99.90;;;;;;5111187;28;20401;-63
2022/04/05 04:01:15;;;;;;;13.27;3.00;;;6.30;99.90;;;;;;5093244;28;20520;-63
2022/04/05 04:03:40;;;;;;;12.77;2.67;;;6.30;99.90;;;;;;5111191;28;20051;-64
2022/04/05 04:06:06;;;;;;;21.80;2.88;;;6.30;99.90;;;;;;5111683;28;20145;-64
2022/04/05 04:08:32;;;;;;;17.08;2.83;;;6.30;99.90;;;;;;5111519;28;20087;-62
2022/04/05 04:10:58;;;;;;;18.10;3.20;;;6.30;99.90;;;;;;5111251;28;20039;-63
2022/04/05 04:13:23;;;;;;;15.02;2.20;;;6.30;99.90;;;;;;5111507;28;20076;-62
2022/04/05 04:15:49;;;;;;;19.17;3.70;;;6.40;99.90;;;;;;5110984;28;20047;-67
2022/04/05 04:18:15;;;;;;;15.82;3.22;;;6.00;99.90;;;;;;5093158;28;20044;-66
2022/04/05 04:20:43;;;;;;;18.45;3.28;;;6.50;99.90;;;;;;5092789;28;20320;-63
2022/04/05 04:23:10;;;;;;;14.40;3.03;;;6.40;99.90;;;;;;5111227;28;20044;-62
2022/04/05 04:25:39;;;;;;;16.83;2.35;;;6.40;99.90;;;;;;5111527;28;20412;-64
2022/04/05 04:28:06;;;;;;;16.33;2.85;;;6.40;99.90;;;;;;5093795;28;20123;-64
2022/04/05 04:30:36;;;;;;;14.43;3.08;;;6.40;99.90;;;;;;5093302;28;20059;-63
2022/04/05 04:33:02;;;;;;;10.68;2.85;;;6.40;99.90;;;;;;5092614;28;20075;-63
2022/04/05 04:35:29;;;;;;;13.30;2.72;;;6.40;99.90;;;;;;5111145;28;20046;-62
2022/04/05 04:37:55;;;;;;;12.65;2.50;;;6.40;99.90;;;;;;5110876;28;20612;-63
2022/04/05 04:40:21;;;;;;;22.52;2.83;;;6.40;99.90;;;;;;5111212;28;20128;-62
2022/04/05 04:42:47;;;;;;;15.30;3.60;;;6.40;99.90;;;;;;5092545;28;20056;-63
2022/04/05 04:45:13;;;;;;;16.85;3.33;;;6.40;99.90;;;;;;5111132;28;20055;-63
2022/04/05 04:47:39;;;;;;;16.58;3.45;;;6.40;99.90;;;;;;5111139;28;20044;-70
2022/04/05 04:50:07;;;;;;;18.63;3.50;;;6.40;99.90;;;;;;5113536;28;20080;-62
2022/04/05 04:52:33;;;;;;;16.27;3.15;;;6.40;99.90;;;;;;5114561;28;20086;-62
2022/04/05 04:54:59;;;;;;;13.70;2.42;;;6.40;99.90;;;;;;5096394;28;20086;-62
2022/04/05 04:57:25;;;;;;;23.70;3.20;;;6.40;99.90;;;;;;5114757;28;20051;-63
2022/04/05 04:59:52;;;;;;;16.75;3.53;;;6.40;99.90;;;;;;5114163;28;20126;-64
2022/04/05 05:02:18;;;;;;;13.45;2.65;;;6.40;99.90;;;;;;5114397;28;20100;-64
2022/04/05 05:04:44;;;;;;;14.63;2.90;;;6.40;99.90;;;;;;5114161;28;20043;-69
2022/04/05 05:07:09;;;;;;;20.65;4.68;;;6.40;99.90;;;;;;5114474;28;20542;-63
2022/04/05 05:09:36;;;;;;;17.50;3.80;;;6.50;99.90;;;;;;5114425;28;20115;-63
2022/04/05 05:12:02;;;;;;;16.58;3.38;;;6.40;99.90;;;;;;5095894;28;20069;-62
2022/04/05 05:14:30;;;;;;;15.57;2.65;;;6.40;99.90;;;;;;5114244;28;20051;-63
2022/04/05 05:16:56;;;;;;;17.05;3.47;;;6.40;99.90;;;;;;5113844;28;20090;-63
2022/04/05 05:19:22;;;;;;;21.70;3.40;;;6.40;99.90;;;;;;5113834;28;20535;-63
2022/04/05 05:21:48;;;;;;;14.85;3.08;;;6.50;99.90;;;;;;5113927;28;20043;-63
2022/04/05 05:24:14;;;;;;;19.80;3.72;;;6.50;99.90;;;;;;5113374;28;20489;-63
2022/04/05 05:26:39;;;;;;;15.25;3.60;;;6.50;99.90;;;;;;5095409;28;20126;-63
2022/04/05 05:29:05;;;;;;;19.77;3.17;;;6.50;99.90;;;;;;5095230;28;20040;-63
2022/04/05 05:31:31;;;;;;;18.08;2.70;;;6.50;99.90;;;;;;5113417;28;20044;-63
2022/04/05 05:33:57;;;;;;;17.35;2.95;;;6.50;99.90;;;;;;5094733;28;20104;-66
2022/04/05 05:36:23;;;;;;;16.88;2.83;;;6.50;99.90;;;;;;5113208;28;20043;-64
2022/04/05 05:38:49;;;;;;;15.80;2.85;;;6.50;99.90;;;;;;5112748;28;20054;-66
2022/04/05 05:41:14;;;;;;;14.05;2.90;;;6.50;99.90;;;;;;5095552;28;20055;-64
2022/04/05 05:43:45;;;;;;;18.15;3.53;;;6.60;99.90;;;;;;5078598;28;20485;-64
2022/04/05 05:46:11;;;;;;;15.13;3.97;;;6.60;99.90;;;;;;5094871;28;20044;-63
2022/04/05 05:48:37;;;;;;;17.08;2.80;;;6.70;99.90;;;;;;5113669;28;20094;-65
2022/04/05 05:51:03;;;;;;;19.83;3.58;;;6.60;99.90;;;;;;5113017;28;20071;-63
2022/04/05 05:53:29;;;;;;;18.88;2.78;;;6.60;99.90;;;;;;5095320;28;20047;-63
2022/04/05 05:55:54;;;;;;;13.93;3.20;;;6.70;99.90;;;;;;5112874;28;20043;-63
2022/04/05 05:58:20;;;;;;;15.70;2.88;;;6.70;99.90;;;;;;5113100;28;20044;-63
2022/04/05 06:00:46;;;;;;;17.75;3.55;;;6.70;99.90;;;;;;5112060;28;20120;-64
2022/04/05 06:03:11;;;;;;;16.42;3.17;;;6.70;99.90;;;;;;5094627;28;20139;-63
2022/04/05 06:05:37;;;;;;;16.15;3.38;;;6.80;99.90;;;;;;5094824;28;20126;-64
2022/04/05 06:08:07;;;;;;;9.35;3.13;;;6.80;99.90;;;;;;5094516;28;20104;-64
2022/04/05 06:10:32;;;;;;;14.10;2.97;;;6.80;99.90;;;;;;5113307;28;20040;-65
2022/04/05 06:12:58;;;;;;;14.98;2.78;;;6.80;99.90;;;;;;5112574;28;20042;-65
2022/04/05 06:15:25;;;;;;;14.50;2.80;;;6.80;99.90;;;;;;5112837;28;20628;-65
2022/04/05 06:17:52;;;;;;;23.42;3.72;;;6.80;99.90;;;;;;5112904;28;20046;-70
2022/04/05 06:20:20;;;;;;;15.32;3.53;;;6.80;99.90;;;;;;5094459;28;20040;-65
2022/04/05 06:22:48;;;;;;;13.63;3.20;;;6.90;99.90;;;;;;5112835;28;20055;-64
2022/04/05 06:25:16;;;;;;;11.50;2.75;;;6.80;99.90;;;;;;5093531;28;20047;-65
2022/04/05 06:27:42;;;;;;;17.05;2.65;;;6.90;99.90;;;;;;5094253;28;20204;-64
2022/04/05 06:30:09;;;;;;;14.57;2.80;;;6.80;99.90;;;;;;5111842;28;20149;-66
2022/04/05 06:32:35;;;;;;;19.58;3.60;;;6.90;99.90;;;;;;5094766;28;20473;-65
2022/04/05 06:35:02;;;;;;;18.48;4.00;;;6.90;99.90;;;;;;5112260;28;20044;-64
2022/04/05 06:37:28;;;;;;;17.65;3.08;;;7.00;99.90;;;;;;5112573;28;20040;-66
2022/04/05 06:39:54;;;;;;;15.45;3.80;;;7.00;99.90;;;;;;5094229;28;20066;-71
2022/04/05 06:42:20;;;;;;;13.85;2.55;;;7.00;99.90;;;;;;5112560;28;20051;-65
2022/04/05 06:44:46;;;;;;;14.93;3.40;;;7.00;99.90;;;;;;5112736;28;20063;-65
2022/04/05 06:47:12;;;;;;;12.57;2.80;;;7.00;99.90;;;;;;5112071;28;20378;-67
2022/04/05 06:49:38;;;;;;;14.77;2.92;;;7.10;99.90;;;;;;5093855;28;20405;-65
2022/04/05 06:52:04;;;;;;;9.68;2.78;;;7.10;99.90;;;;;;5093771;28;20043;-66
2022/04/05 06:54:30;;;;;;;16.88;3.78;;;7.10;99.90;;;;;;5060567;28;20345;-66
2022/04/05 06:56:56;;;;;;;14.25;3.28;;;7.10;99.90;;;;;;5112325;28;20054;-70
2022/04/05 06:59:21;;;;;;;14.43;3.28;;;7.20;99.90;;;;;;5093870;28;20043;-63
2022/04/05 07:01:47;;;;;;;16.02;3.05;;;7.40;99.90;;;;;;5112704;28;20493;-63
2022/04/05 07:04:13;;;;;;;17.55;2.88;;;7.40;99.90;;;;;;5111868;28;20048;-66
2022/04/05 07:06:39;;;;;;;11.32;3.10;;;7.50;99.90;;;;;;5093651;28;20473;-65
2022/04/05 07:09:05;;;;;;;18.63;3.40;;;7.60;99.90;;;;;;5111449;28;20043;-64
2022/04/05 07:11:32;;;;;;;13.88;3.05;;;7.70;99.90;;;;;;5093561;28;20381;-66
2022/04/05 07:13:57;;;;;;;11.63;3.08;;;7.70;99.90;;;;;;5060362;28;20043;-70
2022/04/05 07:16:23;;;;;;;12.45;3.03;;;7.70;99.90;;;;;;5111805;28;20050;-63
2022/04/05 07:18:49;;;;;;;18.52;2.88;;;7.80;99.90;;;;;;5112372;28;20627;-62
2022/04/05 07:21:15;;;;;;;11.60;3.83;;;7.80;99.90;;;;;;5093143;28;20054;-65
2022/04/05 07:23:44;;;;;;;10.35;2.50;;;7.90;99.90;;;;;;5111570;28;20121;-65
2022/04/05 07:26:11;;;;;;;10.80;2.60;;;7.90;99.90;;;;;;5093493;28;20426;-64
2022/04/05 07:28:36;;;;;;;9.60;3.08;;;7.90;99.90;;;;;;5112006;28;20048;-63
2022/04/05 07:31:03;;;;;;;16.60;2.78;;;7.80;99.90;;;;;;5093196;28;20069;-69
2022/04/05 07:33:29;;;;;;;12.85;2.42;;;7.80;99.90;;;;;;5111776;28;20059;-64
2022/04/05 07:35:55;;;;;;;11.68;2.45;;;7.80;99.90;;;;;;5077154;28;20130;-63
2022/04/05 07:38:21;;;;;;;11.95;2.58;;;7.80;99.90;;;;;;5111420;28;20112;-64
2022/04/05 07:40:49;;;;;;;10.25;2.67;;;7.80;99.90;;;;;;5093523;28;20052;-63
2022/04/05 07:43:20;;;;;;;12.18;2.70;;;7.70;99.90;;;;;;5093270;28;20055;-66
2022/04/05 07:45:49;;;;;;;9.00;3.15;;;7.70;99.90;;;;;;5093602;28;20489;-64
2022/04/05 07:48:28;;;;;;;11.88;3.13;;;7.70;99.90;;;;;;5108504;28;20043;-62
2022/04/05 07:50:55;;;;;;;13.18;3.05;;;7.80;99.90;;;;;;5075730;28;20050;-66
2022/04/05 07:53:21;;;;;;;8.27;2.15;;;7.80;99.90;;;;;;5092029;28;20039;-64
2022/04/05 07:55:47;;;;;;;10.80;3.20;;;7.80;99.90;;;;;;5093654;28;20480;-63
2022/04/05 07:58:13;;;;;;;13.07;2.50;;;7.80;99.90;;;;;;5111216;28;20051;-62
2022/04/05 08:00:38;;;;;;;14.73;3.00;;;7.70;99.90;;;;;;5111020;28;20074;-61
2022/04/05 08:03:04;;;;;;;10.82;2.78;;;7.70;99.90;;;;;;5093094;28;20059;-68
2022/04/05 08:05:30;;;;;;;9.23;2.75;;;7.70;99.90;;;;;;5111222;28;20138;-62
2022/04/05 08:07:56;;;;;;;8.65;2.90;;;7.60;99.90;;;;;;5092968;28;20062;-64
2022/04/05 08:10:23;;;;;;;14.52;3.28;;;7.60;99.90;;;;;;5092543;28;20055;-62
2022/04/05 08:12:50;;;;;;;11.25;3.03;;;7.60;99.90;;;;;;5110945;28;20453;-63
2022/04/05 08:15:21;;;;;;;7.90;2.40;;;7.60;99.90;;;;;;5110639;28;20039;-62
2022/04/05 08:17:47;;;;;;;15.00;2.75;;;7.60;99.90;;;;;;5093190;28;20083;-64
2022/04/05 08:20:14;;;;;;;10.40;2.92;;;7.70;99.90;;;;;;5110455;28;20130;-63
2022/04/05 08:22:40;;;;;;;8.73;2.80;;;7.70;99.90;;;;;;5093322;28;20408;-62
2022/04/05 08:25:07;;;;;;;10.77;2.55;;;7.80;99.90;;;;;;5113909;28;20120;-61
2022/04/05 08:27:33;;;;;;;10.30;2.70;;;7.60;99.90;;;;;;5114867;28;20051;-63
2022/04/05 08:30:00;;;;;;;10.75;2.58;;;7.90;99.90;;;;;;5096522;28;20122;-63
2022/04/05 08:32:27;;;;;;;13.30;2.40;;;7.90;99.90;;;;;;5114351;28;20489;-63
2022/04/05 08:34:53;;;;;;;11.48;2.25;;;8.00;99.90;;;;;;5115075;28;20039;-63
2022/04/05 08:37:19;;;;;;;8.95;2.25;;;8.00;99.90;;;;;;5096732;28;20048;-64
2022/04/05 08:39:45;;;;;;;10.93;2.45;;;8.10;99.90;;;;;;5114756;28;20078;-62
2022/04/05 08:42:12;;;;;;;8.60;2.78;;;8.30;99.90;;;;;;5096619;28;20097;-62
2022/04/05 08:44:38;;;;;;;9.70;2.72;;;8.30;99.90;;;;;;5115205;28;20449;-63
2022/04/05 08:47:04;;;;;;;8.50;2.65;;;8.30;99.90;;;;;;5114895;28;20043;-63
2022/04/05 08:49:31;;;;;;;11.13;2.47;;;8.40;99.90;;;;;;5114497;28;20560;-62
2022/04/05 08:51:57;;;;;;;8.18;2.92;;;8.50;99.90;;;;;;5096228;28;20469;-63
2022/04/05 08:54:24;;;;;;;10.65;2.95;;;8.50;99.90;;;;;;5079107;28;20050;-61
2022/04/05 08:56:50;;;;;;;12.05;3.22;;;8.50;99.90;;;;;;5114708;28;20423;-62
2022/04/05 08:59:16;;;;;;;11.60;2.58;;;8.60;99.90;;;;;;5096067;28;20096;-62
2022/04/05 09:01:43;;;;;;;9.95;3.65;;;8.60;99.90;;;;;;5095705;28;20465;-63
2022/04/05 09:04:10;;;;;;;8.90;2.75;;;8.60;99.90;;;;;;5114692;28;20052;-62
2022/04/05 09:06:36;;;;;;;6.53;2.58;;;8.60;99.90;;;;;;5095873;28;20054;-62
2022/04/05 09:09:19;;;;;;;13.38;3.10;;;8.60;99.90;;;;;;5113836;28;20050;-62
2022/04/05 09:11:50;;;;;;;8.73;2.90;;;8.60;99.90;;;;;;5095658;28;20115;-62
2022/04/05 09:14:27;;;;;;;7.07;2.40;;;8.60;99.90;;;;;;5112788;28;20485;-62
2022/04/05 09:17:12;;;;;;;10.50;3.00;;;8.60;99.90;;;;;;5113326;28;20055;-63
2022/04/05 09:19:52;;;;;;;9.70;2.97;;;8.60;99.90;;;;;;5113826;28;20099;-64
2022/04/05 09:22:32;;;;;;;8.60;2.40;;;8.80;99.90;;;;;;5095757;28;20048;-64
2022/04/05 09:25:06;;;;;;;8.68;2.83;;;8.60;99.90;;;;;;5114235;28;20059;-62
2022/04/05 09:28:05;;;;;;;9.82;3.08;;;8.60;99.90;;;;;;5113781;28;20489;-61
2022/04/05 09:30:31;;;;;;;9.95;2.65;;;8.60;99.90;;;;;;5094425;28;20056;-62
2022/04/05 09:32:58;;;;;;;9.35;2.25;;;8.60;99.90;;;;;;5114213;28;20441;-64
2022/04/05 09:35:30;;;;;;;7.85;3.08;;;8.70;99.90;;;;;;5113656;28;20051;-62
2022/04/05 09:38:12;;;;;;;7.93;2.55;;;8.70;99.90;;;;;;5096069;28;20051;-62
2022/04/05 09:40:38;;;;;;;9.07;3.05;;;8.60;99.90;;;;;;5113549;28;20040;-62
2022/04/05 09:43:12;;;;;;;8.00;2.80;;;8.70;99.90;;;;;;5095959;28;20054;-62
2022/04/05 09:45:44;;;;;;;6.45;2.13;;;8.70;99.90;;;;;;5113349;28;20163;-62
2022/04/05 09:48:11;;;;;;;6.78;2.60;;;8.80;99.90;;;;;;5113530;28;20047;-67
2022/04/05 09:51:04;;;;;;;9.98;3.22;;;8.80;99.90;;;;;;5113150;28;20059;-62
2022/04/05 09:53:39;;;;;;;11.23;3.22;;;8.80;99.90;;;;;;5113466;28;20046;-67
2022/04/05 09:56:06;;;;;;;12.57;3.83;;;8.80;99.90;;;;;;5113724;28;20043;-65
2022/04/05 09:58:32;;;;;;;9.52;2.80;;;8.80;99.90;;;;;;5113316;28;20517;-63
2022/04/05 10:01:10;;;;;;;13.63;3.00;;;8.80;99.90;;;;;;5094984;28;20126;-63
2022/04/05 10:03:41;;;;;;;10.48;2.88;;;8.80;99.90;;;;;;5113381;28;20050;-64
2022/04/05 10:06:07;;;;;;;6.85;2.80;;;8.70;99.90;;;;;;5113518;28;20059;-66
2022/04/05 10:08:34;;;;;;;11.48;3.58;;;8.70;99.90;;;;;;5113148;28;20044;-64
2022/04/05 10:11:01;;;;;;;12.77;3.40;;;8.70;99.90;;;;;;5112921;28;20103;-67
2022/04/05 10:13:30;;;;;;;9.15;3.08;;;8.70;99.90;;;;;;5094898;28;20051;-67
2022/04/05 10:15:57;;;;;;;6.53;2.88;;;8.70;99.90;;;;;;5113114;28;20051;-63
2022/04/05 10:18:24;;;;;;;7.00;2.97;;;8.60;99.90;;;;;;5112743;28;20249;-64
2022/04/05 10:20:51;;;;;;;8.88;2.67;;;8.80;99.90;;;;;;5112975;28;20043;-67
2022/04/05 10:23:21;;;;;;;5.80;2.50;;;8.80;99.90;;;;;;5112943;28;20039;-64
2022/04/05 10:25:53;;;;;;;6.68;2.70;;;8.80;99.90;;;;;;5113051;28;20068;-65
2022/04/05 10:28:34;;;;;;;6.47;2.80;;;8.80;99.90;;;;;;5113212;28;20172;-65
2022/04/05 10:31:14;;;;;;;7.30;2.20;;;8.90;99.90;;;;;;5112735;28;20377;-65
2022/04/05 10:34:03;;;;;;;4.07;2.35;;;8.80;99.90;;;;;;5112527;28;20043;-62
2022/04/05 10:36:29;;;;;;;6.30;2.00;;;8.80;99.90;;;;;;5112776;28;20137;-62
2022/04/05 10:39:13;;;;;;;7.20;2.00;;;8.80;99.90;;;;;;5113066;28;20134;-68
2022/04/05 10:41:39;;;;;;;4.03;2.03;;;8.90;99.90;;;;;;5112471;28;20054;-64
2022/04/05 10:44:24;;;;;;;4.38;1.70;;;8.90;99.90;;;;;;5112818;28;20481;-66
2022/04/05 10:46:56;;;;;;;4.70;1.58;;;8.90;99.90;;;;;;5112210;28;20051;-66
2022/04/05 10:49:35;;;;;;;2.17;1.35;;;8.90;99.90;;;;;;5112535;28;20044;-67
2022/04/05 10:52:17;;;;;;;3.97;1.50;;;9.00;99.90;;;;;;5112354;28;20047;-65
2022/04/05 10:54:51;;;;;;;3.95;1.50;;;9.00;99.90;;;;;;5111887;28;20043;-64
2022/04/05 10:57:26;;;;;;;4.00;1.55;;;9.10;99.90;;;;;;5112455;28;20043;-64
2022/04/05 11:00:26;;;;;;;5.10;1.60;;;9.20;99.90;;;;;;5112555;28;20062;-63
2022/04/05 11:02:58;;;;;;;3.10;1.58;;;9.20;99.90;;;;;;5094157;28;20032;-64
2022/04/05 11:05:24;;;;;;;3.53;1.65;;;9.20;99.90;;;;;;5094545;28;20382;-63
2022/04/05 11:08:01;;;;;;;1.98;1.42;;;9.20;99.90;;;;;;5111950;28;20131;-64
2022/04/05 11:10:51;;;;;;;3.78;1.80;;;9.10;99.90;;;;;;5094174;28;20043;-64
2022/04/05 11:13:29;;;;;;;4.03;2.10;;;9.20;99.90;;;;;;5110743;28;20044;-65
2022/04/05 11:15:57;;;;;;;4.22;2.00;;;9.20;99.90;;;;;;5112060;28;20043;-65
2022/04/05 11:18:25;;;;;;;3.47;1.50;;;9.20;99.90;;;;;;5093912;28;20074;-64
2022/04/05 11:20:52;;;;;;;3.65;1.67;;;9.20;99.90;;;;;;5092786;28;20453;-67
2022/04/05 11:23:20;;;;;;;4.38;2.10;;;9.20;99.90;;;;;;5093778;28;20077;-63
2022/04/05 11:25:47;;;;;;;3.80;2.28;;;9.10;99.90;;;;;;5091714;28;20416;-64
2022/04/05 11:28:18;;;;;;;4.65;2.40;;;9.10;99.90;;;;;;5112166;28;20051;-64
2022/04/05 11:31:02;;;;;;;3.08;2.00;;;9.10;99.90;;;;;;5093254;28;20081;-63
2022/04/05 11:33:31;;;;;;;4.10;2.13;;;9.10;99.90;;;;;;5093481;28;20503;-62
2022/04/05 11:36:00;;;;;;;3.60;2.03;;;9.20;99.90;;;;;;5111973;28;20289;-63
2022/04/05 11:38:46;;;;;;;4.28;1.88;;;9.30;99.90;;;;;;5111830;28;20051;-64
2022/04/05 11:41:22;;;;;;;4.80;1.88;;;9.50;99.90;;;;;;5111735;28;20392;-63
2022/04/05 11:44:00;;;;;;;3.60;1.75;;;9.50;99.90;;;;;;5093549;28;20407;-63
2022/04/05 11:46:34;;;;;;;3.60;2.05;;;9.50;99.90;;;;;;5093875;28;20223;-64
2022/04/05 11:49:05;;;;;;;4.65;2.10;;;9.50;99.90;;;;;;5111929;28;20047;-64
2022/04/05 11:51:34;;;;;;;3.65;1.83;;;9.50;99.90;;;;;;5111837;28;20116;-63
2022/04/05 11:54:04;;;;;;;5.60;2.28;;;9.50;99.90;;;;;;5111602;28;20044;-66
2022/04/05 11:56:30;;;;;;;4.40;2.20;;;9.50;99.90;;;;;;5111866;28;20048;-63
2022/04/05 11:59:00;;;;;;;3.92;2.03;;;9.40;99.90;;;;;;5114542;28;20043;-63
2022/04/05 12:01:28;;;;;;;5.13;2.30;;;9.40;99.90;;;;;;5115655;28;20422;-65
2022/04/05 12:04:10;;;;;;;3.55;2.10;;;9.40;99.90;;;;;;5115555;28;20035;-62
2022/04/05 12:06:40;;;;;;;5.10;2.20;;;9.50;99.90;;;;;;5115597;28;20047;-62
2022/04/05 12:09:17;;;;;;;3.13;2.05;;;9.60;99.90;;;;;;5116030;28;20063;-62
2022/04/05 12:11:49;;;;;;;3.35;1.60;;;9.80;99.90;;;;;;5115373;28;20081;-63
2022/04/05 12:14:19;;;;;;;3.63;1.92;;;9.90;99.90;;;;;;5097361;28;20047;-64
2022/04/05 12:16:49;;;;;;;3.03;1.90;;;9.90;99.90;;;;;;5115382;28;20105;-66
2022/04/05 12:19:24;;;;;;;3.35;1.83;;;10.00;99.90;;;;;;5115531;28;20039;-64
2022/04/05 12:22:00;;;;;;;2.50;1.83;;;10.20;99.90;;;;;;5114956;28;20150;-63
2022/04/05 12:24:27;;;;;;;3.22;1.92;;;10.30;99.90;;;;;;5115188;28;20067;-63
2022/04/05 12:26:56;;;;;;;2.15;1.70;;;10.30;99.90;;;;;;5115219;28;20056;-66
2022/04/05 12:29:22;;;;;;;2.45;1.80;;;10.40;99.90;;;;;;5097385;28;20050;-63
2022/04/05 12:31:48;;;;;;;2.80;1.70;;;10.50;99.90;;;;;;5096747;28;20501;-64
2022/04/05 12:34:15;;;;;;;2.88;1.75;;;10.50;99.90;;;;;;5115470;28;20039;-64
2022/04/05 12:36:53;;;;;;;3.15;1.80;;;10.60;99.90;;;;;;5096741;28;20534;-64
2022/04/05 12:39:21;;;;;;;3.47;1.90;;;10.70;99.90;;;;;;5115269;28;20424;-63
2022/04/05 12:41:49;;;;;;;2.78;1.95;;;10.70;99.90;;;;;;5114937;28;20055;-64
2022/04/05 12:44:17;;;;;;;2.85;1.92;;;10.70;99.90;;;;;;5097200;28;20043;-64
2022/04/05 12:46:49;;;;;;;2.47;1.83;;;10.80;99.90;;;;;;5114855;28;20399;-64
2022/04/05 12:49:19;;;;;;;2.60;1.85;;;10.80;99.90;;;;;;5080163;28;20167;-62
2022/04/05 12:51:45;;;;;;;2.53;1.73;;;10.70;99.90;;;;;;5114583;28;20051;-64
2022/04/05 12:54:24;;;;;;;2.63;1.90;;;10.80;99.90;;;;;;5096791;28;20420;-62
2022/04/05 12:56:50;;;;;;;3.40;2.03;;;10.70;99.90;;;;;;5114614;28;20134;-63